Time;durP1;ratioP1;P1;durP2;ratioP2;P2;SDS_P1;SDS_P2;PMS_P1;PMS_P2;Temp;Humidity;BMP_temperature;BMP_pressure;BME280_temperature;BME280_humidity;BME280_pressure;Samples;Min_cycle;Max_cycle;Signal;HPM_P1;HPM_P2
2021/12/15 00:01:03;;;;;;;47.65;26.55;;;;;;;8.00;99.66;102838.34;5055619;28;20090;-58
2021/12/15 00:03:29;;;;;;;44.70;25.80;;;;;;;8.02;99.80;102832.63;5054493;28;20120;-57
2021/12/15 00:05:54;;;;;;;46.90;27.67;;;;;;;7.99;100.00;102825.63;5055301;28;20052;-57
2021/12/15 00:08:21;;;;;;;44.15;25.92;;;;;;;7.96;100.00;102832.47;5055504;28;20448;-56
2021/12/15 00:10:48;;;;;;;45.90;26.58;;;;;;;7.95;100.00;102818.94;5055167;28;20041;-56
2021/12/15 00:13:15;;;;;;;45.90;26.73;;;;;;;7.93;100.00;102818.34;5054846;28;20052;-56
2021/12/15 00:15:42;;;;;;;47.05;27.98;;;;;;;7.91;100.00;102823.25;5054047;28;20029;-56
2021/12/15 00:18:08;;;;;;;49.63;28.58;;;;;;;7.92;100.00;102824.94;5055302;28;20025;-56
2021/12/15 00:20:34;;;;;;;47.40;25.98;;;;;;;7.93;100.00;102826.59;5054875;28;20047;-56
2021/12/15 00:23:00;;;;;;;51.35;29.15;;;;;;;7.92;100.00;102822.16;5054982;28;20035;-57
2021/12/15 00:25:29;;;;;;;49.35;28.50;;;;;;;7.85;100.00;102813.19;5054266;28;20115;-55
2021/12/15 00:27:56;;;;;;;45.67;26.33;;;;;;;7.90;100.00;102821.56;5055085;28;20029;-57
2021/12/15 00:30:21;;;;;;;48.80;25.80;;;;;;;7.90;100.00;102814.16;5054780;28;20021;-57
2021/12/15 00:32:48;;;;;;;45.97;26.40;;;;;;;7.90;100.00;102816.06;5055083;28;20025;-56
2021/12/15 00:35:13;;;;;;;46.97;26.38;;;;;;;7.89;100.00;102814.38;5054507;28;20411;-57
2021/12/15 00:37:39;;;;;;;49.47;26.40;;;;;;;7.94;100.00;102822.78;5053445;28;20130;-55
2021/12/15 00:40:08;;;;;;;46.17;27.65;;;;;;;7.88;100.00;102802.53;5054531;28;20025;-55
2021/12/15 00:42:33;;;;;;;49.15;27.13;;;;;;;7.95;100.00;102825.28;5053799;28;20053;-55
2021/12/15 00:44:58;;;;;;;47.58;26.75;;;;;;;7.91;100.00;102813.09;5053195;28;20357;-55
2021/12/15 00:47:24;;;;;;;46.83;27.33;;;;;;;7.93;100.00;102812.84;5054289;28;20060;-55
2021/12/15 00:49:51;;;;;;;44.10;25.08;;;;;;;7.93;100.00;102810.06;5054712;28;20112;-56
2021/12/15 00:52:16;;;;;;;45.38;26.02;;;;;;;7.93;100.00;102808.19;5054684;28;20040;-55
2021/12/15 00:54:41;;;;;;;48.08;26.88;;;;;;;7.93;100.00;102815.59;5054504;28;20017;-55
2021/12/15 00:57:07;;;;;;;46.97;27.25;;;;;;;7.94;100.00;102811.75;5053948;28;20290;-55
2021/12/15 00:59:33;;;;;;;48.35;26.80;;;;;;;7.90;100.00;102805.03;5053461;28;20052;-57
2021/12/15 01:01:59;;;;;;;48.03;26.92;;;;;;;7.91;100.00;102810.31;5053819;28;20056;-55
2021/12/15 01:04:25;;;;;;;46.92;26.85;;;;;;;7.92;100.00;102813.91;5052977;28;20033;-55
2021/12/15 01:06:56;;;;;;;48.30;27.52;;;;;;;7.87;100.00;102805.53;5053204;28;20031;-55
2021/12/15 01:09:31;;;;;;;48.05;26.55;;;;;;;7.86;100.00;102807.44;5053765;28;20025;-55
2021/12/15 01:20:26;;;;;;;47.38;26.60;;;;;;;7.90;100.00;102830.69;5054279;28;20055;-57
2021/12/15 01:22:54;;;;;;;44.85;25.45;;;;;;;7.84;100.00;102806.00;5053746;28;20029;-57
2021/12/15 01:25:30;;;;;;;48.58;28.48;;;;;;;7.84;100.00;102817.84;5053663;28;20028;-56
2021/12/15 01:27:56;;;;;;;45.67;27.00;;;;;;;7.86;100.00;102817.63;5052832;28;20060;-58
2021/12/15 01:30:26;;;;;;;48.22;25.52;;;;;;;7.83;100.00;102821.72;5053705;28;20063;-57
2021/12/15 01:32:51;;;;;;;48.50;28.63;;;;;;;7.80;100.00;102816.66;5053798;28;20124;-57
2021/12/15 01:35:17;;;;;;;50.33;26.88;;;;;;;7.80;100.00;102824.94;5053398;28;20108;-57
2021/12/15 01:37:45;;;;;;;46.63;27.50;;;;;;;7.80;100.00;102816.66;5052883;28;20029;-57
2021/12/15 01:40:19;;;;;;;47.40;25.98;;;;;;;7.82;100.00;102820.03;5053229;28;20029;-57
2021/12/15 01:42:45;;;;;;;50.05;27.40;;;;;;;7.81;100.00;102821.09;5053169;28;20063;-58
2021/12/15 01:48:03;;;;;;;;;;;;;;;7.83;100.00;102820.84;5054066;28;20044;-57
2021/12/15 01:50:28;;;;;;;44.55;24.88;;;;;;;7.81;100.00;102821.94;5053303;28;19909;-57
2021/12/15 01:52:54;;;;;;;49.13;27.63;;;;;;;7.79;100.00;102818.56;5053262;28;20027;-56
2021/12/15 01:55:20;;;;;;;46.75;26.85;;;;;;;7.79;100.00;102821.31;5053132;28;20025;-55
2021/12/15 01:57:46;;;;;;;45.03;24.77;;;;;;;7.78;100.00;102832.59;5052537;28;20040;-56
2021/12/15 02:00:16;;;;;;;50.45;25.95;;;;;;;7.78;100.00;102838.09;5052548;28;20033;-58
2021/12/15 02:02:42;;;;;;;46.95;25.98;;;;;;;7.80;100.00;102831.25;5052338;28;20032;-57
2021/12/15 02:05:09;;;;;;;44.38;25.42;;;;;;;7.79;100.00;102831.50;5052833;28;20025;-57
2021/12/15 02:07:35;;;;;;;45.70;25.48;;;;;;;7.85;100.00;102838.00;5052164;28;20110;-56
2021/12/15 02:12:33;;;;;;;45.08;25.45;;;;;;;7.81;100.00;102840.38;5052914;28;20072;-55
2021/12/15 02:14:59;;;;;;;47.67;26.60;;;;;;;7.82;100.00;102842.06;5052902;28;20495;-55
2021/12/15 02:17:24;;;;;;;45.05;24.75;;;;;;;7.83;100.00;102840.13;5052865;28;20032;-55
2021/12/15 02:19:50;;;;;;;45.85;25.83;;;;;;;7.82;100.00;102850.34;5052942;28;20025;-55
2021/12/15 02:22:15;;;;;;;48.65;26.92;;;;;;;7.84;100.00;102845.41;5052541;28;20498;-55
2021/12/15 02:24:42;;;;;;;48.60;25.75;;;;;;;7.86;100.00;102848.75;5052839;28;20025;-55
2021/12/15 02:27:11;;;;;;;47.55;27.00;;;;;;;7.87;100.00;102855.97;5052575;28;20025;-56
2021/12/15 02:29:40;;;;;;;45.40;26.15;;;;;;;7.87;100.00;102852.38;5051687;28;20029;-57
2021/12/15 02:37:23;;;;;;;49.28;26.63;;;;;;;7.84;100.00;102841.81;5052713;28;20479;-55
2021/12/15 02:39:50;;;;;;;49.95;27.50;;;;;;;7.83;100.00;102843.75;5052713;28;20025;-57
2021/12/15 02:42:17;;;;;;;49.03;27.40;;;;;;;7.82;100.00;102844.81;5052445;28;20059;-57
2021/12/15 02:44:44;;;;;;;48.00;26.88;;;;;;;7.84;100.00;102850.09;5052573;28;20071;-56
2021/12/15 02:47:16;;;;;;;46.10;26.92;;;;;;;7.80;100.00;102838.72;5052564;28;20028;-56
2021/12/15 02:49:42;;;;;;;47.72;26.58;;;;;;;7.87;100.00;102844.94;5052499;28;20082;-55
2021/12/15 02:52:09;;;;;;;51.08;27.95;;;;;;;7.87;100.00;102844.09;5051915;28;20475;-55
2021/12/15 02:54:35;;;;;;;47.35;25.52;;;;;;;7.84;100.00;102834.38;5052812;28;20035;-55
2021/12/15 02:57:07;;;;;;;49.47;27.17;;;;;;;7.82;100.00;102839.31;5052279;28;20025;-55
2021/12/15 02:59:45;;;;;;;47.72;26.55;;;;;;;7.83;100.00;102845.66;5052456;28;20029;-55
2021/12/15 03:05:15;;;;;;;46.92;25.65;;;;;;;7.79;100.00;102840.59;5053339;28;20044;-55
2021/12/15 03:07:52;;;;;;;49.17;26.13;;;;;;;7.81;100.00;102843.97;5052879;28;20036;-56
2021/12/15 03:15:49;;;;;;;49.30;25.70;;;;;;;7.78;100.00;102844.47;5051597;28;20403;-55
2021/12/15 03:18:19;;;;;;;49.38;26.38;;;;;;;7.77;100.00;102839.19;5051345;28;20021;-55
2021/12/15 03:20:58;;;;;;;50.60;26.23;;;;;;;7.78;100.00;102841.72;5051983;28;20024;-55
2021/12/15 03:23:42;;;;;;;50.05;25.65;;;;;;;7.75;100.00;102820.13;5052409;28;20025;-55
2021/12/15 03:26:09;;;;;;;;;;;;;;;7.86;100.00;102828.66;5052287;28;20029;-55
2021/12/15 03:34:37;;;;;;;49.92;25.02;;;;;;;7.75;100.00;102822.91;5055847;28;19935;-55
2021/12/15 03:39:26;;;;;;;53.38;28.48;;;;;;;7.75;100.00;102828.41;5055421;28;20048;-56
2021/12/15 03:41:59;;;;;;;51.13;26.27;;;;;;;7.76;100.00;102840.25;5053917;28;20044;-56
2021/12/15 03:44:26;;;;;;;50.85;26.25;;;;;;;7.75;100.00;102833.91;5055770;28;20519;-55
2021/12/15 03:46:52;;;;;;;53.08;26.65;;;;;;;7.75;100.00;102847.69;5055628;28;20037;-56
2021/12/15 03:49:18;;;;;;;49.35;25.77;;;;;;;7.76;100.00;102843.00;5054903;28;20051;-55
2021/12/15 03:51:43;;;;;;;48.58;25.98;;;;;;;7.80;100.00;102845.03;5055167;28;20472;-58
2021/12/15 03:54:09;;;;;;;48.95;25.17;;;;;;;7.84;100.00;102850.91;5054979;28;20021;-56
2021/12/15 03:56:36;;;;;;;45.05;25.77;;;;;;;7.82;100.00;102850.34;5055294;28;20115;-56
2021/12/15 03:59:03;;;;;;;46.15;24.10;;;;;;;7.87;100.00;102855.13;5055866;28;20032;-58
2021/12/15 04:01:28;;;;;;;46.83;24.50;;;;;;;7.91;100.00;102853.56;5053878;28;20024;-56
2021/12/15 04:03:55;;;;;;;51.33;25.92;;;;;;;7.87;100.00;102849.63;5055811;28;20029;-56
2021/12/15 04:06:24;;;;;;;46.85;24.58;;;;;;;7.88;100.00;102865.09;5055191;28;20090;-56
2021/12/15 04:08:51;;;;;;;49.55;25.35;;;;;;;7.89;100.00;102856.56;5055217;28;20074;-56
2021/12/15 04:11:19;;;;;;;48.00;24.33;;;;;;;7.85;100.00;102851.78;5055380;28;20079;-56
2021/12/15 04:13:47;;;;;;;46.55;25.13;;;;;;;7.88;100.00;102852.13;5055487;28;20040;-56
2021/12/15 04:16:41;;;;;;;48.67;27.38;;;;;;;7.84;100.00;102859.19;5055600;28;20075;-57
2021/12/15 04:19:11;;;;;;;49.97;25.08;;;;;;;7.77;100.00;102847.44;5055170;28;20095;-57
2021/12/15 04:21:38;;;;;;;47.08;24.98;;;;;;;7.85;100.00;102860.03;5054377;28;20041;-55
2021/12/15 04:24:04;;;;;;;49.30;25.45;;;;;;;7.84;100.00;102856.44;5054674;28;20017;-55
2021/12/15 04:26:29;;;;;;;48.38;24.55;;;;;;;7.87;100.00;102868.91;5054849;28;20365;-58
2021/12/15 04:28:55;;;;;;;49.28;26.52;;;;;;;7.87;100.00;102861.47;5055224;28;20075;-58
2021/12/15 04:31:24;;;;;;;45.50;23.88;;;;;;;7.87;100.00;102864.22;5055152;28;20021;-56
2021/12/15 04:33:54;;;;;;;43.38;23.40;;;;;;;7.86;100.00;102859.78;5055338;28;20515;-56
2021/12/15 04:36:21;;;;;;;46.13;24.13;;;;;;;7.90;100.00;102862.91;5054891;28;20033;-56
2021/12/15 04:38:47;;;;;;;43.13;23.67;;;;;;;7.92;100.00;102864.38;5053190;28;20032;-56
2021/12/15 04:41:18;;;;;;;47.63;24.73;;;;;;;7.88;100.00;102863.16;5054471;28;20021;-55
2021/12/15 04:43:48;;;;;;;47.17;25.45;;;;;;;7.90;100.00;102871.19;5054721;28;20045;-55
2021/12/15 04:46:14;;;;;;;48.05;24.80;;;;;;;7.91;100.00;102870.09;5054495;28;20078;-56
2021/12/15 04:48:41;;;;;;;45.53;24.83;;;;;;;7.87;100.00;102857.88;5054700;28;20021;-56
2021/12/15 04:51:07;;;;;;;45.53;23.60;;;;;;;7.90;100.00;102872.03;5054540;28;20032;-56
2021/12/15 04:53:32;;;;;;;51.80;30.67;;;;;;;7.92;100.00;102874.53;5054747;28;20029;-56
2021/12/15 04:55:58;;;;;;;45.20;24.35;;;;;;;7.89;100.00;102869.50;5054274;28;20108;-56
2021/12/15 04:58:23;;;;;;;45.65;25.30;;;;;;;7.95;100.00;102874.06;5054252;28;20075;-56
2021/12/15 05:00:55;;;;;;;45.78;25.00;;;;;;;7.88;100.00;102878.88;5054400;28;20029;-54
2021/12/15 05:03:22;;;;;;;47.30;26.60;;;;;;;7.95;100.00;102885.91;5054774;28;20430;-57
2021/12/15 05:05:47;;;;;;;44.00;24.27;;;;;;;7.96;100.00;102884.84;5054121;28;20029;-55
2021/12/15 05:08:13;;;;;;;44.58;24.17;;;;;;;7.96;100.00;102879.34;5053477;28;20028;-55
2021/12/15 05:10:39;;;;;;;45.53;26.00;;;;;;;7.97;100.00;102877.44;5054128;28;20503;-57
2021/12/15 05:13:05;;;;;;;44.03;23.55;;;;;;;7.97;100.00;102885.69;5054225;28;20127;-55
2021/12/15 05:15:31;;;;;;;54.75;31.55;;;;;;;7.99;100.00;102883.53;5053984;28;20031;-55
2021/12/15 05:17:57;;;;;;;52.40;28.85;;;;;;;7.96;100.00;102876.56;5054379;28;20100;-58
2021/12/15 05:20:23;;;;;;;45.50;24.23;;;;;;;7.98;100.00;102881.88;5054211;28;20564;-56
2021/12/15 05:22:49;;;;;;;46.03;23.92;;;;;;;8.00;100.00;102884.38;5053884;28;20020;-56
2021/12/15 05:25:14;;;;;;;50.00;27.33;;;;;;;8.03;100.00;102893.00;5053440;28;20036;-57
2021/12/15 05:27:41;;;;;;;52.10;27.48;;;;;;;8.06;100.00;102889.78;5053789;28;20029;-56
2021/12/15 05:30:09;;;;;;;47.45;25.95;;;;;;;8.05;100.00;102890.00;5053069;28;20029;-56
2021/12/15 05:32:34;;;;;;;42.38;23.08;;;;;;;8.10;100.00;102892.91;5053380;28;20480;-57
2021/12/15 05:34:59;;;;;;;42.22;22.48;;;;;;;8.08;100.00;102893.13;5053540;28;20036;-57
2021/12/15 05:37:28;;;;;;;45.20;24.00;;;;;;;8.08;100.00;102889.53;5053900;28;20502;-57
2021/12/15 05:39:54;;;;;;;44.90;24.25;;;;;;;8.08;100.00;102895.88;5053217;28;20035;-58
2021/12/15 05:42:21;;;;;;;44.03;22.63;;;;;;;8.07;100.00;102891.47;5053890;28;20132;-56
2021/12/15 05:44:48;;;;;;;41.35;22.00;;;;;;;8.05;100.00;102885.34;5051782;28;20029;-57
2021/12/15 05:47:14;;;;;;;42.47;24.40;;;;;;;8.03;100.00;102886.66;5053555;28;20029;-56
2021/12/15 05:49:40;;;;;;;42.33;23.90;;;;;;;8.02;100.00;102896.00;5053239;28;20051;-55
2021/12/15 05:52:06;;;;;;;43.28;23.85;;;;;;;8.03;100.00;102894.94;5052651;28;20143;-56
2021/12/15 05:54:31;;;;;;;42.90;22.77;;;;;;;8.04;100.00;102894.69;5053649;28;20033;-55
2021/12/15 05:56:57;;;;;;;40.95;23.13;;;;;;;8.07;100.00;102890.59;5052112;28;20427;-56
2021/12/15 05:59:22;;;;;;;42.88;23.02;;;;;;;8.04;100.00;102897.44;5053179;28;20025;-58
2021/12/15 06:01:48;;;;;;;44.00;23.77;;;;;;;8.01;100.00;102892.41;5052404;28;20392;-56
2021/12/15 06:04:14;;;;;;;42.75;23.08;;;;;;;8.02;100.00;102898.78;5053230;28;20021;-57
2021/12/15 06:06:39;;;;;;;45.65;24.05;;;;;;;8.00;100.00;102900.91;5052831;28;20025;-57
2021/12/15 06:09:07;;;;;;;41.83;22.98;;;;;;;7.99;100.00;102899.22;5052995;28;20033;-56
2021/12/15 06:11:33;;;;;;;43.47;23.23;;;;;;;8.02;100.00;102901.53;5052643;28;20507;-56
2021/12/15 06:13:59;;;;;;;42.83;22.02;;;;;;;8.00;100.00;102903.69;5053591;28;20037;-57
2021/12/15 06:16:24;;;;;;;44.13;22.42;;;;;;;8.02;100.00;102904.28;5053300;28;20029;-58
2021/12/15 06:18:51;;;;;;;43.67;22.92;;;;;;;7.99;100.00;102908.31;5052717;28;20029;-56
2021/12/15 06:21:17;;;;;;;43.40;22.58;;;;;;;8.01;100.00;102908.94;5052982;28;20056;-56
2021/12/15 06:23:43;;;;;;;44.30;22.33;;;;;;;8.05;100.00;102920.31;5052655;28;20029;-56
2021/12/15 06:26:09;;;;;;;41.65;21.90;;;;;;;8.09;100.00;102918.78;5052919;28;20029;-56
2021/12/15 06:28:37;;;;;;;44.40;22.83;;;;;;;8.06;100.00;102914.59;5053344;28;20040;-56
2021/12/15 06:31:07;;;;;;;43.38;22.70;;;;;;;8.02;100.00;102902.34;5053141;28;20036;-58
2021/12/15 06:33:34;;;;;;;44.88;23.38;;;;;;;8.07;100.00;102921.78;5053195;28;20108;-56
2021/12/15 06:36:02;;;;;;;43.22;23.42;;;;;;;8.06;100.00;102919.25;5053045;28;20037;-57
2021/12/15 06:38:32;;;;;;;48.33;24.50;;;;;;;8.04;100.00;102921.41;5053043;28;20117;-56
2021/12/15 06:40:58;;;;;;;45.47;23.90;;;;;;;8.04;100.00;102921.41;5053267;28;20029;-56
2021/12/15 06:43:25;;;;;;;44.13;23.13;;;;;;;8.03;100.00;102928.03;5052940;28;20075;-56
2021/12/15 06:46:03;;;;;;;43.42;22.65;;;;;;;8.07;100.00;102918.19;5052879;28;20032;-56
2021/12/15 06:59:25;;;;;;;47.42;24.27;;;;;;;7.99;100.00;102924.88;5052812;28;20139;-57
2021/12/15 07:01:51;;;;;;;45.35;24.70;;;;;;;8.01;100.00;102928.22;5052263;28;20029;-56
2021/12/15 07:04:18;;;;;;;51.55;25.90;;;;;;;7.94;100.00;102919.25;5053604;28;20028;-56
2021/12/15 07:06:44;;;;;;;50.65;24.88;;;;;;;8.02;100.00;102937.34;5055553;28;20029;-56
2021/12/15 07:09:10;;;;;;;51.60;25.42;;;;;;;8.05;100.00;102936.88;5057039;28;20017;-56
2021/12/15 07:11:35;;;;;;;45.03;23.75;;;;;;;7.98;100.00;102928.72;5056868;28;20377;-58
2021/12/15 07:14:01;;;;;;;48.28;24.92;;;;;;;7.99;100.00;102935.88;5056852;28;20021;-57
2021/12/15 07:16:28;;;;;;;47.38;24.50;;;;;;;8.01;100.00;102942.00;5055675;28;20455;-56
2021/12/15 07:19:06;;;;;;;50.15;25.13;;;;;;;8.02;100.00;102949.22;5055689;28;20029;-57
2021/12/15 07:21:36;;;;;;;50.67;26.38;;;;;;;8.00;100.00;102943.09;5056328;28;20035;-56
2021/12/15 07:24:01;;;;;;;51.17;27.33;;;;;;;7.97;100.00;102944.41;5056195;28;20439;-57
2021/12/15 07:26:27;;;;;;;48.78;25.55;;;;;;;8.00;100.00;102953.28;5056422;28;20044;-56
2021/12/15 07:28:53;;;;;;;54.33;28.05;;;;;;;8.03;100.00;102955.59;5056506;28;20035;-56
2021/12/15 07:31:18;;;;;;;49.00;24.42;;;;;;;8.05;100.00;102954.25;5056349;28;20029;-56
2021/12/15 07:33:44;;;;;;;49.47;25.67;;;;;;;8.02;100.00;102946.44;5056331;28;20437;-56
2021/12/15 07:36:10;;;;;;;51.90;26.17;;;;;;;8.00;100.00;102951.34;5056415;28;20552;-57
2021/12/15 07:38:41;;;;;;;51.72;26.00;;;;;;;8.00;100.00;102950.53;5056204;28;20075;-57
2021/12/15 07:41:09;;;;;;;51.38;26.20;;;;;;;7.99;100.00;102946.91;5056329;28;20049;-58
2021/12/15 07:43:35;;;;;;;49.83;25.65;;;;;;;8.03;100.00;102947.31;5056352;28;20041;-58
2021/12/15 07:46:03;;;;;;;55.30;26.50;;;;;;;7.97;100.00;102943.59;5056081;28;20040;-57
2021/12/15 07:48:36;;;;;;;52.00;26.10;;;;;;;7.94;100.00;102946.81;5056054;28;20029;-56
2021/12/15 07:51:04;;;;;;;53.58;24.58;;;;;;;7.98;100.00;102948.03;5055998;28;20031;-58
2021/12/15 07:53:29;;;;;;;51.72;24.75;;;;;;;8.02;100.00;102957.47;5055712;28;20431;-56
2021/12/15 07:55:55;;;;;;;52.22;26.67;;;;;;;8.06;100.00;102964.22;5055682;28;20054;-57
2021/12/15 07:58:22;;;;;;;54.83;27.38;;;;;;;8.06;100.00;102966.97;5055965;28;20021;-56
2021/12/15 08:00:50;;;;;;;54.83;27.17;;;;;;;8.05;100.00;102959.78;5055832;28;20104;-57
2021/12/15 08:03:17;;;;;;;52.28;26.75;;;;;;;8.05;100.00;102959.78;5055667;28;20476;-58
2021/12/15 08:05:45;;;;;;;54.97;25.60;;;;;;;8.04;100.00;102958.09;5055898;28;20017;-57
2021/12/15 08:08:10;;;;;;;53.00;26.55;;;;;;;8.09;100.00;102962.91;5055674;28;20159;-56
2021/12/15 08:10:36;;;;;;;52.28;25.73;;;;;;;8.12;100.00;102976.22;5056232;28;20108;-58
2021/12/15 08:13:02;;;;;;;55.75;26.15;;;;;;;8.14;100.00;102978.72;5055519;28;20475;-58
2021/12/15 08:15:27;;;;;;;56.17;28.90;;;;;;;8.11;100.00;102972.59;5055184;28;20029;-57
2021/12/15 08:17:53;;;;;;;55.33;26.48;;;;;;;8.11;100.00;102980.03;5055644;28;20395;-57
2021/12/15 08:20:22;;;;;;;54.88;27.30;;;;;;;8.09;100.00;102980.25;5055456;28;20068;-56
2021/12/15 08:22:47;;;;;;;54.58;27.42;;;;;;;8.12;100.00;102981.72;5055275;28;20057;-56
2021/12/15 08:25:14;;;;;;;54.00;26.65;;;;;;;8.17;100.00;102978.25;5055377;28;20064;-58
2021/12/15 08:27:40;;;;;;;57.50;27.88;;;;;;;8.15;100.00;102977.66;5055328;28;20063;-56
2021/12/15 08:30:08;;;;;;;53.13;25.95;;;;;;;8.15;100.00;102970.19;5054108;28;20166;-56
2021/12/15 08:32:34;;;;;;;52.42;25.52;;;;;;;8.14;100.00;102974.03;5055363;28;20489;-57
2021/12/15 08:35:00;;;;;;;54.13;25.58;;;;;;;8.17;100.00;102981.00;5055326;28;20025;-58
2021/12/15 08:37:25;;;;;;;53.97;25.88;;;;;;;8.21;100.00;102979.44;5055095;28;20162;-56
2021/12/15 08:39:51;;;;;;;51.72;26.27;;;;;;;8.23;100.00;102983.63;5055110;28;20151;-56
2021/12/15 08:42:16;;;;;;;54.20;27.00;;;;;;;8.24;100.00;102985.31;5055062;28;20045;-56
2021/12/15 08:44:41;;;;;;;55.50;27.38;;;;;;;8.23;100.00;102983.63;5055081;28;20419;-58
2021/12/15 08:47:08;;;;;;;54.05;26.08;;;;;;;8.26;100.00;102982.34;5055283;28;20021;-57
2021/12/15 08:49:35;;;;;;;52.63;25.92;;;;;;;8.24;100.00;102985.31;5055087;28;20064;-58
2021/12/15 08:52:01;;;;;;;54.75;28.33;;;;;;;8.24;100.00;102987.25;5054782;28;20104;-57
2021/12/15 08:54:26;;;;;;;57.90;27.70;;;;;;;8.22;100.00;102979.19;5054960;28;20567;-56
2021/12/15 08:56:53;;;;;;;56.53;28.42;;;;;;;8.21;100.00;102980.31;5054833;28;20104;-57
2021/12/15 08:59:19;;;;;;;57.05;27.38;;;;;;;8.20;100.00;102981.38;5054839;28;20492;-57
2021/12/15 09:01:45;;;;;;;55.25;27.92;;;;;;;8.24;100.00;102982.56;5054886;28;20032;-57
2021/12/15 09:04:13;;;;;;;57.38;27.58;;;;;;;8.16;100.00;102971.88;5054724;28;20334;-57
2021/12/15 09:06:39;;;;;;;51.00;25.83;;;;;;;8.27;100.00;102982.09;5054479;28;20412;-57
2021/12/15 09:09:07;;;;;;;54.40;27.23;;;;;;;8.32;100.00;102989.66;5054704;28;20025;-57
2021/12/15 09:11:33;;;;;;;53.20;26.77;;;;;;;8.33;100.00;102990.47;5054528;28;20029;-57
2021/12/15 09:14:00;;;;;;;56.05;27.52;;;;;;;8.35;100.00;102986.44;5054437;28;20056;-56
2021/12/15 09:16:27;;;;;;;53.45;25.88;;;;;;;8.35;100.00;102996.59;5054404;28;20086;-56
2021/12/15 09:18:55;;;;;;;54.92;27.08;;;;;;;8.29;100.00;102987.38;5054424;28;20052;-57
2021/12/15 09:21:23;;;;;;;55.35;27.90;;;;;;;8.38;100.00;102998.91;5054252;28;20574;-56
2021/12/15 09:23:48;;;;;;;54.53;27.35;;;;;;;8.40;100.00;102994.81;5053992;28;20116;-57
2021/12/15 09:26:14;;;;;;;55.50;28.25;;;;;;;8.41;100.00;103003.91;5053968;28;20175;-57
2021/12/15 09:28:39;;;;;;;55.45;27.83;;;;;;;8.39;100.00;103006.94;5053753;28;20025;-57
2021/12/15 09:31:07;;;;;;;56.53;27.95;;;;;;;8.39;100.00;103012.44;5054040;28;20029;-56
2021/12/15 09:33:33;;;;;;;58.22;28.63;;;;;;;8.41;100.00;103018.56;5054011;28;20496;-56
2021/12/15 09:36:01;;;;;;;52.30;27.42;;;;;;;8.38;100.00;103019.03;5054063;28;20049;-56
2021/12/15 09:38:27;;;;;;;54.60;27.48;;;;;;;8.42;100.00;103008.34;5052629;28;20415;-57
2021/12/15 09:40:56;;;;;;;54.40;27.42;;;;;;;8.44;100.00;103011.72;5054339;28;20043;-57
2021/12/15 09:43:22;;;;;;;53.40;26.23;;;;;;;8.48;100.00;103018.50;5053675;28;20137;-57
2021/12/15 09:46:01;;;;;;;54.72;28.05;;;;;;;8.50;100.00;103019.06;5053895;28;20049;-57
2021/12/15 10:05:17;;;;;;;50.55;26.05;;;;;;;8.77;100.00;103024.13;5053757;28;20116;-56
2021/12/15 10:11:12;;;;;;;51.08;25.95;;;;;;;8.77;99.94;103010.34;5053808;28;20031;-58
2021/12/15 10:19:25;;;;;;;49.15;26.10;;;;;;;8.91;99.63;103019.22;5053607;28;20106;-58
2021/12/15 10:22:17;;;;;;;52.05;27.88;;;;;;;9.01;99.68;103030.47;5053252;28;20040;-57
2021/12/15 10:25:01;;;;;;;57.03;27.80;;;;;;;9.04;99.19;103027.22;5053649;28;20037;-57
2021/12/15 10:27:47;;;;;;;;;;;;;;;9.12;99.52;103019.63;5053744;28;20467;-57
2021/12/15 10:30:24;;;;;;;51.83;25.20;;;;;;;9.14;98.71;103023.88;5053241;28;19915;-57
2021/12/15 10:32:57;;;;;;;52.33;25.92;;;;;;;9.13;98.68;103022.19;5053509;28;20103;-58
2021/12/15 10:35:34;;;;;;;51.53;27.15;;;;;;;9.23;98.46;103021.53;5051904;28;20396;-57
2021/12/15 10:38:27;;;;;;;49.90;27.40;;;;;;;9.29;98.43;103017.81;5053009;28;20025;-59
2021/12/15 10:40:57;;;;;;;49.53;27.05;;;;;;;9.30;97.63;103015.88;5051367;28;20067;-55
2021/12/15 10:43:27;;;;;;;49.47;26.55;;;;;;;9.38;97.52;103026.56;5052890;28;20404;-56
2021/12/15 10:45:58;;;;;;;47.67;26.70;;;;;;;9.34;97.18;103012.41;5052906;28;20044;-57
2021/12/15 10:48:37;;;;;;;47.97;27.60;;;;;;;9.46;96.48;103020.63;5053099;28;20044;-57
2021/12/15 10:51:36;;;;;;;46.38;25.85;;;;;;;9.48;97.32;103020.41;5053498;28;20029;-57
2021/12/15 10:54:20;;;;;;;46.75;26.30;;;;;;;9.46;96.68;103019.81;5052838;28;20427;-58
2021/12/15 10:57:06;;;;;;;47.53;26.30;;;;;;;9.52;96.76;103033.50;5052834;28;20079;-58
2021/12/15 10:59:35;;;;;;;47.17;25.88;;;;;;;9.48;96.46;103021.25;5053133;28;20071;-56
2021/12/15 11:02:04;;;;;;;47.15;27.05;;;;;;;9.55;95.92;103028.53;5052846;28;20538;-58
2021/12/15 11:04:37;;;;;;;45.55;27.20;;;;;;;9.48;96.05;103021.25;5052815;28;20060;-58
2021/12/15 11:07:10;;;;;;;48.60;26.83;;;;;;;9.55;96.46;103026.63;5052572;28;20399;-56
2021/12/15 11:09:42;;;;;;;47.10;26.40;;;;;;;9.45;96.63;103009.84;5052700;28;20104;-58
2021/12/15 11:12:32;;;;;;;49.60;26.15;;;;;;;9.53;96.39;103017.75;5052820;28;20114;-58
2021/12/15 11:15:02;;;;;;;49.22;28.02;;;;;;;9.44;96.16;103016.44;5053088;28;20150;-58
2021/12/15 11:17:38;;;;;;;48.30;27.83;;;;;;;9.44;96.60;103019.22;5052777;28;20021;-58
2021/12/15 11:20:31;;;;;;;49.75;28.08;;;;;;;9.57;96.57;103023.63;5052677;28;20040;-58
2021/12/15 11:23:09;;;;;;;50.45;27.58;;;;;;;9.56;96.17;103019.16;5051151;28;20033;-56
2021/12/15 11:25:43;;;;;;;52.38;29.60;;;;;;;9.61;96.04;103013.75;5052720;28;20021;-56
2021/12/15 11:28:38;;;;;;;49.45;27.88;;;;;;;9.65;95.72;103024.06;5052776;28;20029;-57
2021/12/15 11:31:11;;;;;;;;;;;;;;;9.72;96.43;103020.31;5051188;28;20065;-57
2021/12/15 11:33:54;;;;;;;48.25;28.00;;;;;;;9.71;95.53;103018.63;5052652;28;19908;-57
2021/12/15 11:36:31;;;;;;;49.95;28.75;;;;;;;9.64;95.87;103013.25;5052605;28;20094;-57
2021/12/15 11:39:05;;;;;;;50.38;29.75;;;;;;;9.71;95.64;103025.00;5052768;28;20032;-57
2021/12/15 11:41:53;;;;;;;48.53;30.02;;;;;;;9.74;95.55;103018.97;5052395;28;20107;-56
2021/12/15 11:44:21;;;;;;;51.15;29.15;;;;;;;9.79;95.08;103015.47;5052395;28;20095;-56
2021/12/15 11:46:54;;;;;;;50.15;29.45;;;;;;;9.80;94.86;103012.47;5052547;28;20464;-57
2021/12/15 11:49:23;;;;;;;50.13;29.10;;;;;;;9.81;94.74;103008.63;5052425;28;20047;-57
2021/12/15 11:52:00;;;;;;;51.70;29.67;;;;;;;9.78;94.78;103014.63;5055625;28;20399;-57
2021/12/15 11:54:28;;;;;;;51.30;29.38;;;;;;;9.81;94.46;103014.16;5056194;28;20038;-55
2021/12/15 11:57:03;;;;;;;47.25;27.60;;;;;;;9.79;94.12;103001.66;5056120;28;20033;-57
2021/12/15 11:59:28;;;;;;;47.92;28.17;;;;;;;9.86;94.69;103004.25;5055976;28;20189;-58
2021/12/15 12:01:56;;;;;;;51.47;29.67;;;;;;;9.83;94.48;103006.44;5056160;28;20033;-56
2021/12/15 12:04:27;;;;;;;49.17;28.60;;;;;;;9.81;94.52;103000.34;5055848;28;20460;-57
2021/12/15 12:06:57;;;;;;;48.05;27.10;;;;;;;9.82;94.54;103003.91;5055907;28;20036;-57
2021/12/15 12:09:23;;;;;;;46.40;28.30;;;;;;;9.87;94.55;103001.25;5056146;28;20399;-56
2021/12/15 12:11:55;;;;;;;48.10;29.48;;;;;;;9.91;93.83;103018.19;5055800;28;20039;-56
2021/12/15 12:14:43;;;;;;;48.67;28.58;;;;;;;9.90;93.09;102995.22;5055987;28;20029;-57
2021/12/15 12:17:13;;;;;;;44.30;27.10;;;;;;;9.92;92.97;103006.06;5056125;28;20029;-57
2021/12/15 12:19:57;;;;;;;47.22;27.63;;;;;;;9.86;93.53;102996.81;5055836;28;20114;-57
2021/12/15 12:22:28;;;;;;;47.15;27.38;;;;;;;9.82;93.45;102993.69;5055480;28;20033;-55
2021/12/15 12:24:57;;;;;;;46.03;26.92;;;;;;;9.90;93.44;102997.97;5055748;28;20032;-57
2021/12/15 12:27:24;;;;;;;47.75;28.00;;;;;;;9.92;93.07;102997.75;5055280;28;20099;-57
2021/12/15 12:29:54;;;;;;;45.35;26.08;;;;;;;9.88;93.09;102989.09;5055363;28;20480;-57
2021/12/15 12:32:20;;;;;;;44.88;26.88;;;;;;;9.92;93.69;103000.53;5055295;28;20107;-57